首页
METAR-TAF:

METAR-TAF

机场 :

Clarion Municipal Airport

Clarion, 艾奥瓦州, 美国

纬度: 42-45N, 经度: 093-46W, 海拔: 354米

当前天气观测

该预报发布于26分钟前的19:55 UTC
风速15节,风向西
温度 23°C
湿度 61%
气压 1006 hPa
能見度: 16.1公里
少量云层高于4300英尺
散云层高于5000英尺
散云层高于12000英尺

METAR: KCAV 241955Z AUTO 27015KT 10SM FEW043 SCT050 SCT120 23/15 A2971 RMK AO2 PWINO

时间: 15:21 (20:21 UTC)


TAF: 丢失

超过4000个机场的气象观测和天气预报(METAR&TAF报告)。

可查询的气象台以黄色和红色小点在地图上表示。

将鼠标移到小点上方,可查看气象台名称。

然后点击查看天气观测和预报。

如需切换地图:点击带黑十字的绿色按钮放大地图;点击带横线的绿色按钮缩小地图;或者点击绿色箭头查看邻近地区的地图。


METAR-TAF: